Time;durP1;ratioP1;P1;durP2;ratioP2;P2;SDS_P1;SDS_P2;PMS_P1;PMS_P2;Temp;Humidity;BMP_temperature;BMP_pressure;BME280_temperature;BME280_humidity;BME280_pressure;Samples;Min_cycle;Max_cycle;Signal;HPM_P1;HPM_P2
2021/10/04 00:01:54;;;;;;;;;;;;;;;15.93;60.07;100065.88;4436782;32;19985;-85
2021/10/04 00:04:19;;;;;;;;;;;;;;;15.94;60.06;100058.84;4436783;32;20016;-85
2021/10/04 00:06:44;;;;;;;;;;;;;;;15.79;60.06;100072.72;4436366;32;20353;-83
2021/10/04 00:09:09;;;;;;;;;;;;;;;15.80;60.05;100063.91;4435828;32;27255;-85
2021/10/04 00:11:35;;;;;;;;;;;;;;;15.79;60.05;100062.22;4436379;32;20226;-84
2021/10/04 00:14:00;;;;;;;;;;;;;;;15.74;60.05;100066.84;4436376;32;19993;-84
2021/10/04 00:16:25;;;;;;;;;;;;;;;15.69;60.04;100063.59;4436453;32;20913;-84
2021/10/04 00:18:50;;;;;;;;;;;;;;;15.70;60.04;100067.91;4436535;32;28109;-85
2021/10/04 00:21:15;;;;;;;;;;;;;;;15.70;60.04;100067.91;4437332;32;22209;-86
2021/10/04 00:23:41;;;;;;;;;;;;;;;15.66;60.04;100061.97;4437867;32;19997;-87
2021/10/04 00:26:06;;;;;;;;;;;;;;;15.71;60.05;100057.34;4437940;32;20032;-86
2021/10/04 00:28:31;;;;;;;;;;;;;;;15.64;60.05;100056.78;4437170;32;24370;-85
2021/10/04 00:30:56;;;;;;;;;;;;;;;15.72;60.05;100050.31;4437195;32;19993;-85
2021/10/04 00:33:22;;;;;;;;;;;;;;;15.72;60.05;100042.44;4437544;32;20004;-85
2021/10/04 00:35:47;;;;;;;;;;;;;;;15.61;60.04;100048.19;4438393;32;21828;-86
2021/10/04 00:38:12;;;;;;;;;;;;;;;15.65;60.04;100045.38;4436936;32;23443;-86
2021/10/04 00:40:37;;;;;;;;;;;;;;;15.71;60.04;100040.75;4435852;32;27269;-85
2021/10/04 00:43:02;;;;;;;;;;;;;;;15.51;60.03;100045.13;4437614;32;20019;-85
2021/10/04 00:45:28;;;;;;;;;;;;;;;15.57;60.05;100044.84;4437858;32;20330;-85
2021/10/04 00:47:53;;;;;;;;;;;;;;;15.47;60.04;100040.97;4437274;32;20021;-85
2021/10/04 00:50:18;;;;;;;;;;;;;;;15.54;60.03;100029.25;4436296;32;33466;-85
2021/10/04 00:52:44;;;;;;;;;;;;;;;15.47;60.04;100030.47;4437268;32;20028;-86
2021/10/04 00:55:09;;;;;;;;;;;;;;;15.45;60.03;100028.84;4437188;32;20255;-85
2021/10/04 00:57:35;;;;;;;;;;;;;;;15.42;60.04;100026.38;4437281;32;20025;-86
2021/10/04 01:00:00;;;;;;;;;;;;;;;15.43;60.03;100022.81;4437303;32;20649;-85
2021/10/04 01:02:25;;;;;;;;;;;;;;;15.28;60.02;100016.50;4436620;32;20004;-85
2021/10/04 01:04:50;;;;;;;;;;;;;;;15.39;60.02;100018.66;4436705;32;20329;-85
2021/10/04 01:07:16;;;;;;;;;;;;;;;15.26;60.03;100019.22;4437675;32;19997;-86
2021/10/04 01:09:41;;;;;;;;;;;;;;;15.22;60.02;100012.41;4436312;32;21234;-85
2021/10/04 01:12:06;;;;;;;;;;;;;;;15.20;60.02;100013.41;4437204;32;19996;-86
2021/10/04 01:14:31;;;;;;;;;;;;;;;15.15;60.01;100020.66;4437099;32;20315;-85
2021/10/04 01:16:57;;;;;;;;;;;;;;;15.15;60.01;100016.25;4436524;32;20016;-86
2021/10/04 01:19:22;;;;;;;;;;;;;;;15.16;60.01;100017.09;4436156;32;22146;-85
2021/10/04 01:21:47;;;;;;;;;;;;;;;15.08;60.01;100014.81;4437143;32;20009;-85
2021/10/04 01:24:12;;;;;;;;;;;;;;;15.14;60.01;100026.78;4436310;32;24628;-86
2021/10/04 01:26:38;;;;;;;;;;;;;;;15.09;60.01;100026.16;4436957;32;19993;-85
2021/10/04 01:29:03;;;;;;;;;;;;;;;15.14;60.01;100022.41;4436129;32;22101;-85
2021/10/04 01:31:29;;;;;;;;;;;;;;;15.03;60.01;100019.44;4435948;32;20020;-85
2021/10/04 01:33:55;;;;;;;;;;;;;;;15.00;60.00;100020.41;4436554;32;19994;-85
2021/10/04 01:36:21;;;;;;;;;;;;;;;15.10;60.02;100018.22;4436434;32;20045;-85
2021/10/04 01:38:47;;;;;;;;;;;;;;;15.03;60.01;100014.19;4436381;32;19974;-85
2021/10/04 01:41:12;;;;;;;;;;;;;;;14.95;60.00;100008.47;4435678;32;27565;-85
2021/10/04 01:43:37;;;;;;;;;;;;;;;15.00;60.00;100007.31;4423525;32;20020;-85
2021/10/04 01:46:02;;;;;;;;;;;;;;;14.99;60.01;100017.88;4435685;32;33157;-86
2021/10/04 01:48:28;;;;;;;;;;;;;;;14.95;60.01;100016.31;4436055;32;20258;-85
2021/10/04 01:50:53;;;;;;;;;;;;;;;14.99;60.01;100017.88;4436740;32;23424;-86
2021/10/04 01:53:18;;;;;;;;;;;;;;;14.87;60.01;100011.41;4438278;32;22796;-86
2021/10/04 01:55:43;;;;;;;;;;;;;;;14.88;60.00;100012.25;4438305;32;20021;-86
2021/10/04 01:58:09;;;;;;;;;;;;;;;14.77;59.99;100014.53;4438804;32;19993;-85
2021/10/04 02:00:34;;;;;;;;;;;;;;;14.71;60.00;100010.41;4438564;32;20030;-86
2021/10/04 02:02:59;;;;;;;;;;;;;;;14.81;60.00;100016.09;4438726;32;25889;-87
2021/10/04 02:05:26;;;;;;;;;;;;;;;14.89;60.00;100009.56;4438855;32;20304;-85
2021/10/04 02:07:52;;;;;;;;;;;;;;;14.88;60.00;100018.34;4426013;32;19977;-85
2021/10/04 02:10:18;;;;;;;;;;;;;;;14.79;60.00;100016.16;4438478;32;20016;-86
2021/10/04 02:12:43;;;;;;;;;;;;;;;14.84;60.00;100023.81;4425974;32;19981;-85
2021/10/04 02:15:09;;;;;;;;;;;;;;;14.74;59.99;100013.75;4438248;32;19981;-85
2021/10/04 02:17:34;;;;;;;;;;;;;;;14.82;59.99;100021.25;4438580;32;19990;-86
2021/10/04 02:20:00;;;;;;;;;;;;;;;14.78;60.00;100019.69;4438676;32;19985;-85
2021/10/04 02:22:25;;;;;;;;;;;;;;;14.74;59.99;100011.13;4425895;32;20138;-85
2021/10/04 02:24:50;;;;;;;;;;;;;;;14.73;60.00;100021.69;4439111;32;25281;-86
2021/10/04 02:27:16;;;;;;;;;;;;;;;14.72;60.00;100022.59;4438459;32;19997;-84
2021/10/04 02:29:41;;;;;;;;;;;;;;;14.63;59.98;100022.97;4437864;32;20306;-86
2021/10/04 02:32:06;;;;;;;;;;;;;;;14.64;59.99;100024.69;4437316;32;27848;-86
2021/10/04 02:34:32;;;;;;;;;;;;;;;14.65;59.99;100019.38;4437922;32;20000;-85
2021/10/04 02:36:57;;;;;;;;;;;;;;;14.63;59.98;100013.34;4425163;32;19985;-85
2021/10/04 02:39:22;;;;;;;;;;;;;;;14.59;59.98;100010.94;4436763;32;25886;-83
2021/10/04 02:41:47;;;;;;;;;;;;;;;14.58;59.99;100011.88;4436642;32;30555;-85
2021/10/04 02:44:13;;;;;;;;;;;;;;;14.60;59.99;100015.25;4436495;32;32112;-84
2021/10/04 02:46:38;;;;;;;;;;;;;;;14.39;59.97;100024.88;4436941;32;20004;-83
2021/10/04 02:49:03;;;;;;;;;;;;;;;14.49;59.98;100014.91;4436661;32;29933;-84
2021/10/04 02:51:28;;;;;;;;;;;;;;;14.45;59.98;100015.97;4436642;32;27746;-84
2021/10/04 02:53:54;;;;;;;;;;;;;;;14.38;59.97;100018.78;4437329;32;20020;-84
2021/10/04 02:56:19;;;;;;;;;;;;;;;14.41;59.98;100017.81;4437257;32;19981;-84
2021/10/04 02:58:44;;;;;;;;;;;;;;;14.35;59.98;100024.16;4436814;32;20018;-84
2021/10/04 03:01:09;;;;;;;;;;;;;;;14.15;59.96;100016.31;4436527;32;30136;-85
2021/10/04 03:03:34;;;;;;;;;;;;;;;14.19;59.97;100022.25;4437387;32;20082;-85
2021/10/04 03:06:00;;;;;;;;;;;;;;;14.25;59.96;100022.88;4436721;32;22873;-84
2021/10/04 03:08:25;;;;;;;;;;;;;;;14.18;59.97;100026.63;4438573;32;19994;-84
2021/10/04 03:10:50;;;;;;;;;;;;;;;14.18;59.97;100026.63;4437330;32;19985;-84
2021/10/04 03:13:15;;;;;;;;;;;;;;;14.30;59.96;100031.38;4436810;32;20005;-84
2021/10/04 03:15:41;;;;;;;;;;;;;;;14.21;59.97;100034.41;4437138;32;20011;-85
2021/10/04 03:18:06;;;;;;;;;;;;;;;14.11;59.96;100035.69;4436946;32;20003;-84
2021/10/04 03:20:31;;;;;;;;;;;;;;;14.12;59.96;100030.37;4437151;32;19978;-84
2021/10/04 03:22:57;;;;;;;;;;;;;;;14.14;59.96;100033.78;4437057;32;19985;-85
2021/10/04 03:25:22;;;;;;;;;;;;;;;14.13;59.96;100028.59;4437317;32;19999;-85
2021/10/04 03:27:47;;;;;;;;;;;;;;;13.93;59.94;100032.06;4436961;32;20008;-84
2021/10/04 03:30:13;;;;;;;;;;;;;;;13.97;59.96;100041.50;4436785;32;20009;-84
2021/10/04 03:32:38;;;;;;;;;;;;;;;13.95;59.94;100032.84;4437201;32;20028;-84
2021/10/04 03:35:04;;;;;;;;;;;;;;;14.00;59.95;100033.53;4436819;32;20051;-83
2021/10/04 03:37:29;;;;;;;;;;;;;;;14.00;59.95;100035.28;4424172;32;20376;-85
2021/10/04 03:39:54;;;;;;;;;;;;;;;14.05;59.95;100038.56;4436326;32;25609;-84
2021/10/04 03:42:20;;;;;;;;;;;;;;;13.96;59.96;100038.91;4436644;32;26700;-84
2021/10/04 03:44:45;;;;;;;;;;;;;;;13.93;59.95;100025.97;4436428;32;25203;-83
2021/10/04 03:47:10;;;;;;;;;;;;;;;13.90;59.95;100033.94;4436864;32;22169;-84
2021/10/04 03:49:35;;;;;;;;;;;;;;;13.77;59.94;100031.00;4436976;32;19994;-83
2021/10/04 03:52:01;;;;;;;;;;;;;;;13.83;59.94;100028.97;4437346;32;19997;-83
2021/10/04 03:54:27;;;;;;;;;;;;;;;13.77;59.94;100023.16;4437054;32;20344;-84
2021/10/04 03:56:52;;;;;;;;;;;;;;;13.69;59.94;100022.59;4437186;32;20002;-85
2021/10/04 03:59:17;;;;;;;;;;;;;;;13.70;59.94;100022.53;4436656;32;25946;-85
2021/10/04 04:01:42;;;;;;;;;;;;;;;13.73;59.94;100029.41;4436975;32;20007;-83
2021/10/04 04:04:08;;;;;;;;;;;;;;;13.63;59.93;100030.69;4436723;32;20254;-84
2021/10/04 04:06:33;;;;;;;;;;;;;;;13.59;59.93;100026.50;4436357;32;22205;-84
2021/10/04 04:08:58;;;;;;;;;;;;;;;13.59;59.94;100029.97;4436635;32;20013;-84
2021/10/04 04:11:23;;;;;;;;;;;;;;;13.62;59.93;100037.69;4436964;32;20025;-84
2021/10/04 04:13:49;;;;;;;;;;;;;;;13.59;59.94;100043.03;4436777;32;20329;-83
2021/10/04 04:16:14;;;;;;;;;;;;;;;13.76;59.94;100038.00;4436568;32;22377;-84
2021/10/04 04:18:39;;;;;;;;;;;;;;;13.63;59.93;100039.38;4436448;32;20933;-84
2021/10/04 04:21:04;;;;;;;;;;;;;;;13.62;59.93;100037.69;4436429;32;31554;-83
2021/10/04 04:23:30;;;;;;;;;;;;;;;13.68;59.94;100047.88;4437463;32;20026;-85
2021/10/04 04:25:55;;;;;;;;;;;;;;;13.69;59.94;100049.59;4436762;32;28893;-85
2021/10/04 04:28:21;;;;;;;;;;;;;;;13.50;59.93;100044.25;4437474;32;20088;-86
2021/10/04 04:30:46;;;;;;;;;;;;;;;13.45;59.92;100040.09;4437313;32;20012;-85
2021/10/04 04:33:11;;;;;;;;;;;;;;;13.54;59.92;100047.59;4436447;32;26665;-85
2021/10/04 04:35:36;;;;;;;;;;;;;;;13.55;59.93;100057.16;4436797;32;24401;-86
2021/10/04 04:38:02;;;;;;;;;;;;;;;13.57;59.92;100055.31;4436965;32;26945;-86
2021/10/04 04:40:27;;;;;;;;;;;;;;;13.62;59.93;100056.00;4436477;32;30577;-85
2021/10/04 04:42:52;;;;;;;;;;;;;;;13.73;59.94;100051.19;4437384;32;19992;-86
2021/10/04 04:45:18;;;;;;;;;;;;;;;13.50;59.93;100059.97;4424031;32;28814;-85
2021/10/04 04:47:43;;;;;;;;;;;;;;;13.52;59.93;100062.50;4438683;32;19993;-85
2021/10/04 04:50:08;;;;;;;;;;;;;;;13.59;59.94;100065.72;4437428;32;20346;-85
2021/10/04 04:52:34;;;;;;;;;;;;;;;13.64;59.93;100066.38;4436995;32;20061;-84
2021/10/04 04:54:59;;;;;;;;;;;;;;;13.63;59.93;100069.91;4436894;32;20371;-85
2021/10/04 04:57:24;;;;;;;;;;;;;;;13.56;59.93;100079.78;4436014;32;35402;-85
2021/10/04 04:59:51;;;;;;;;;;;;;;;13.56;59.92;100079.78;4435885;32;28194;-84
2021/10/04 05:02:16;;;;;;;;;;;;;;;13.67;59.93;100080.19;4437036;32;19993;-84
2021/10/04 05:04:42;;;;;;;;;;;;;;;13.71;59.94;100083.53;4436511;32;20502;-85
2021/10/04 05:07:07;;;;;;;;;;;;;;;13.66;59.93;100082.88;4436787;32;20001;-85
2021/10/04 05:09:32;;;;;;;;;;;;;;;13.59;59.93;100084.03;4436363;32;21312;-86
2021/10/04 05:11:58;;;;;;;;;;;;;;;13.57;59.92;100088.47;4436350;32;27035;-84
2021/10/04 05:14:23;;;;;;;;;;;;;;;13.64;59.94;100090.78;4436203;32;19977;-84
2021/10/04 05:16:49;;;;;;;;;;;;;;;13.68;59.94;100092.38;4436149;32;29577;-85
2021/10/04 05:19:15;;;;;;;;;;;;;;;13.71;59.93;100107.09;4436543;32;20326;-84
2021/10/04 05:21:40;;;;;;;;;;;;;;;13.70;59.93;100108.84;4436532;32;20015;-85
2021/10/04 05:24:05;;;;;;;;;;;;;;;13.71;59.93;100099.22;4436059;32;22663;-85
2021/10/04 05:26:30;;;;;;;;;;;;;;;13.86;59.94;100103.88;4437130;32;24124;-84
2021/10/04 05:28:56;;;;;;;;;;;;;;;13.85;59.95;100098.69;4438281;32;20286;-85
2021/10/04 05:31:21;;;;;;;;;;;;;;;13.99;59.95;100107.72;4437641;32;31914;-85
2021/10/04 05:33:46;;;;;;;;;;;;;;;14.01;59.95;100098.03;4437912;32;23767;-84
2021/10/04 05:36:11;;;;;;;;;;;;;;;13.96;59.95;100109.59;4438184;32;20854;-84
2021/10/04 05:38:37;;;;;;;;;;;;;;;14.08;59.96;100103.88;4438231;32;23485;-85
2021/10/04 05:41:02;;;;;;;;;;;;;;;14.16;59.96;100106.16;4438534;32;19970;-85
2021/10/04 05:43:28;;;;;;;;;;;;;;;14.21;59.97;100105.09;4438905;32;19997;-87
2021/10/04 05:45:53;;;;;;;;;;;;;;;14.31;59.97;100108.16;4439746;32;19989;-86
2021/10/04 05:48:18;;;;;;;;;;;;;;;14.29;59.97;100112.63;4439102;32;24285;-87
2021/10/04 05:50:43;;;;;;;;;;;;;;;14.33;59.96;100109.78;4439313;32;25551;-87
2021/10/04 05:53:09;;;;;;;;;;;;;;;14.28;59.97;100111.75;4440819;32;20311;-86
2021/10/04 05:55:34;;;;;;;;;;;;;;;14.48;59.99;100118.81;4438871;32;27942;-87
2021/10/04 05:57:59;;;;;;;;;;;;;;;14.55;59.98;100111.53;4439535;32;20008;-87
2021/10/04 06:00:24;;;;;;;;;;;;;;;14.69;59.98;100115.28;4438035;32;19999;-87
2021/10/04 06:02:50;;;;;;;;;;;;;;;14.73;60.00;100116.84;4439818;32;20303;-86
2021/10/04 06:05:15;;;;;;;;;;;;;;;14.74;59.99;100109.84;4438789;32;19993;-87
2021/10/04 06:07:41;;;;;;;;;;;;;;;14.86;59.99;100104.06;4438289;32;20023;-87
2021/10/04 06:10:07;;;;;;;;;;;;;;;15.07;60.01;100106.66;4438123;32;19986;-87
2021/10/04 06:12:32;;;;;;;;;;;;;;;15.02;60.01;100099.84;4438570;32;19996;-87
2021/10/04 06:14:58;;;;;;;;;;;;;;;15.12;60.02;100104.66;4438221;32;19986;-88
2021/10/04 06:17:23;;;;;;;;;;;;;;;15.15;60.01;100112.41;4438304;32;19985;-87
2021/10/04 06:19:49;;;;;;;;;;;;;;;15.22;60.02;100111.22;4439302;32;19987;-87
2021/10/04 06:22:14;;;;;;;;;;;;;;;15.29;60.02;100110.00;4438036;32;20036;-87
2021/10/04 06:24:39;;;;;;;;;;;;;;;15.29;60.02;100108.25;4437816;32;20758;-87
2021/10/04 06:27:04;;;;;;;;;;;;;;;15.42;60.03;100112.94;4437996;32;20001;-86
2021/10/04 06:29:30;;;;;;;;;;;;;;;15.43;60.03;100115.50;4438531;32;19978;-87
2021/10/04 06:31:55;;;;;;;;;;;;;;;15.37;60.02;100121.00;4437493;32;30484;-87
2021/10/04 06:34:20;;;;;;;;;;;;;;;15.62;60.03;100119.00;4438909;32;21601;-87
2021/10/04 06:36:45;;;;;;;;;;;;;;;15.58;60.04;100127.03;4438571;32;28757;-87
2021/10/04 06:39:10;;;;;;;;;;;;;;;15.73;60.05;100123.72;4437219;32;27676;-87
2021/10/04 06:41:40;;;;;;;;;;;;;;;15.81;60.05;100126.81;4437786;32;20008;-87
2021/10/04 06:44:06;;;;;;;;;;;;;;;15.85;60.04;100124.91;4438225;32;20053;-87
2021/10/04 06:46:31;;;;;;;;;;;;;;;15.75;60.04;100114.00;4425507;32;20016;-87
2021/10/04 06:48:56;;;;;;;;;;;;;;;16.00;60.05;100123.34;4437576;32;24525;-86
2021/10/04 06:51:22;;;;;;;;;;;;;;;16.00;60.07;100132.06;4438197;32;20263;-87
2021/10/04 06:53:47;;;;;;;;;;;;;;;16.03;60.06;100131.91;4437975;32;20049;-87
2021/10/04 06:56:12;;;;;;;;;;;;;;;16.09;60.07;100128.13;4437627;32;19989;-86
2021/10/04 06:58:38;;;;;;;;;;;;;;;16.32;60.08;100137.50;4438420;32;24104;-87
2021/10/04 07:01:03;;;;;;;;;;;;;;;16.35;60.08;100143.50;4437997;32;20333;-87
2021/10/04 07:03:29;;;;;;;;;;;;;;;16.32;60.08;100134.88;4437318;32;25987;-87
2021/10/04 07:05:55;;;;;;;;;;;;;;;16.30;60.07;100137.59;4437858;32;20043;-87
2021/10/04 07:08:20;;;;;;;;;;;;;;;16.35;60.08;100140.88;4438086;32;20000;-87
2021/10/04 07:10:46;;;;;;;;;;;;;;;16.48;60.09;100143.72;4437677;32;20002;-87
2021/10/04 07:13:11;;;;;;;;;;;;;;;16.50;60.09;100141.84;4437371;32;27767;-86
2021/10/04 07:15:36;;;;;;;;;;;;;;;16.63;60.09;100150.84;4437568;32;24324;-87
2021/10/04 07:18:01;;;;;;;;;;;;;;;16.72;60.11;100149.53;4437181;32;25495;-88
2021/10/04 07:20:26;;;;;;;;;;;;;;;16.80;60.10;100150.88;4437346;32;20043;-87
2021/10/04 07:22:52;;;;;;;;;;;;;;;16.86;60.11;100139.19;4437121;32;20357;-87
2021/10/04 07:25:17;;;;;;;;;;;;;;;16.92;60.11;100148.53;4437631;32;19993;-87
2021/10/04 07:27:42;;;;;;;;;;;;;;;16.88;60.11;100150.47;4437615;32;20349;-87
2021/10/04 07:30:08;;;;;;;;;;;;;;;17.07;60.11;100153.84;4437088;32;19988;-87
2021/10/04 07:32:33;;;;;;;;;;;;;;;16.98;60.11;100156.94;4437476;32;19997;-87
2021/10/04 07:34:58;;;;;;;;;;;;;;;17.11;60.12;100154.53;4437778;32;19993;-87
2021/10/04 07:37:23;;;;;;;;;;;;;;;17.12;60.12;100153.59;4437642;32;19989;-87
2021/10/04 07:39:49;;;;;;;;;;;;;;;17.07;60.11;100151.22;4437269;32;19990;-86
2021/10/04 07:42:14;;;;;;;;;;;;;;;17.17;60.13;100144.53;4437322;32;20066;-86
2021/10/04 07:44:39;;;;;;;;;;;;;;;17.12;60.12;100148.34;4437466;32;20001;-87
2021/10/04 07:47:05;;;;;;;;;;;;;;;17.26;60.13;100143.19;4437461;32;20015;-87
2021/10/04 07:49:30;;;;;;;;;;;;;;;17.31;60.12;100154.34;4436566;32;19985;-86
2021/10/04 07:51:56;;;;;;;;;;;;;;;17.53;60.14;100154.03;4437067;32;20013;-86
2021/10/04 07:54:21;;;;;;;;;;;;;;;17.50;60.14;100154.19;4437460;32;19981;-87
2021/10/04 07:56:46;;;;;;;;;;;;;;;17.45;60.13;100158.84;4436756;32;21186;-87
2021/10/04 07:59:11;;;;;;;;;;;;;;;17.72;60.15;100146.00;4436966;32;25613;-87
2021/10/04 08:01:37;;;;;;;;;;;;;;;17.77;60.16;100155.34;4437565;32;20005;-88
2021/10/04 08:04:02;;;;;;;;;;;;;;;17.84;60.17;100157.66;4437301;32;20013;-86
2021/10/04 08:06:27;;;;;;;;;;;;;;;17.81;60.16;100160.47;4424507;32;19977;-87
2021/10/04 08:08:53;;;;;;;;;;;;;;;18.15;60.17;100148.87;4437263;32;19992;-87
2021/10/04 08:11:18;;;;;;;;;;;;;;;18.14;60.17;100150.66;4437443;32;19989;-86
2021/10/04 08:13:45;;;;;;;;;;;;;;;18.41;60.19;100145.56;4436567;32;25980;-86
2021/10/04 08:16:10;;;;;;;;;;;;;;;18.41;60.19;100148.22;4437631;32;19989;-88
2021/10/04 08:18:36;;;;;;;;;;;;;;;18.38;60.20;100143.13;4438462;32;19987;-87
2021/10/04 08:21:01;;;;;;;;;;;;;;;18.51;60.20;100144.12;4437115;32;20046;-86
2021/10/04 08:23:26;;;;;;;;;;;;;;;18.65;60.20;100133.62;4438727;32;20258;-87
2021/10/04 08:25:51;;;;;;;;;;;;;;;18.60;60.20;100146.22;4437006;32;26013;-87
2021/10/04 08:28:17;;;;;;;;;;;;;;;18.72;60.21;100138.56;4436953;32;20036;-87
2021/10/04 08:30:42;;;;;;;;;;;;;;;18.68;60.20;100144.00;4437470;32;20000;-87
2021/10/04 08:33:07;;;;;;;;;;;;;;;18.88;60.21;100139.31;4437167;32;20130;-87
2021/10/04 08:35:32;;;;;;;;;;;;;;;18.92;60.22;100133.75;4436099;32;29950;-88
2021/10/04 08:37:58;;;;;;;;;;;;;;;18.98;60.22;100135.22;4436987;32;20027;-87
2021/10/04 08:40:23;;;;;;;;;;;;;;;19.02;60.23;100142.00;4436893;32;19997;-86
2021/10/04 08:42:48;;;;;;;;;;;;;;;19.15;60.22;100142.06;4436709;32;19996;-87
2021/10/04 08:45:14;;;;;;;;;;;;;;;19.11;60.23;100124.75;4437045;32;20008;-87
2021/10/04 08:47:40;;;;;;;;;;;;;;;19.17;60.23;100129.66;4436817;32;20025;-87
2021/10/04 08:50:05;;;;;;;;;;;;;;;19.28;60.23;100125.41;4437206;32;20150;-88
2021/10/04 08:52:30;;;;;;;;;;;;;;;19.32;60.24;100118.13;4424041;32;19997;-87
2021/10/04 08:54:56;;;;;;;;;;;;;;;19.51;60.25;100115.22;4436550;32;20024;-87
2021/10/04 08:57:21;;;;;;;;;;;;;;;19.58;60.25;100113.91;4436822;32;19988;-87
2021/10/04 08:59:46;;;;;;;;;;;;;;;19.70;60.27;100115.78;4435231;32;23273;-87
2021/10/04 09:02:27;;;;;;;;;;;;;;;19.81;60.26;100110.63;4435484;32;26990;-87
2021/10/04 09:05:11;;;;;;;;;;;;;;;19.91;60.27;100118.84;4423786;32;20052;-87
2021/10/04 09:07:44;;;;;;;;;;;;;;;19.99;60.28;100105.13;4436967;32;19981;-87
2021/10/04 09:10:09;;;;;;;;;;;;;;;20.08;60.29;100115.06;4437012;32;19998;-87
2021/10/04 09:12:42;;;;;;;;;;;;;;;20.18;60.29;100109.09;4437235;32;19996;-89
2021/10/04 09:15:27;;;;;;;;;;;;;;;20.31;60.29;100117.03;4423693;32;19982;-86
2021/10/04 09:17:53;;;;;;;;;;;;;;;20.39;60.28;100117.41;4436512;32;19989;-88
2021/10/04 09:20:18;;;;;;;;;;;;;;;20.32;60.29;100115.25;4436284;32;20027;-88
2021/10/04 09:22:43;;;;;;;;;;;;;;;20.45;60.30;100127.59;4436022;32;19989;-86
2021/10/04 09:25:08;;;;;;;;;;;;;;;20.53;60.30;100117.34;4436531;32;20053;-88
2021/10/04 09:27:38;;;;;;;;;;;;;;;20.47;60.31;100124.84;4436540;32;20310;-87
2021/10/04 09:30:10;;;;;;;;;;;;;;;20.64;60.31;100108.69;4436218;32;19962;-87
2021/10/04 09:32:37;;;;;;;;;;;;;;;20.87;60.33;100107.12;4423578;32;19993;-86
2021/10/04 09:35:11;;;;;;;;;;;;;;;21.04;60.33;100106.78;4435999;32;20738;-87
2021/10/04 09:37:36;;;;;;;;;;;;;;;21.10;60.34;100106.38;4436242;32;20020;-86
2021/10/04 09:40:02;;;;;;;;;;;;;;;21.25;60.35;100109.75;4435719;32;20318;-87
2021/10/04 09:42:28;;;;;;;;;;;;;;;21.36;60.35;100103.72;4436095;32;20007;-87
2021/10/04 09:45:00;;;;;;;;;;;;;;;21.43;60.35;100102.31;4435278;32;27011;-87
2021/10/04 09:47:32;;;;;;;;;;;;;;;21.54;60.35;100097.13;4422966;32;19986;-88
2021/10/04 09:50:03;;;;;;;;;;;;;;;21.64;60.37;100098.13;4423398;32;20544;-87
2021/10/04 09:52:43;;;;;;;;;;;;;;;21.76;60.37;100097.22;4423208;32;20053;-86
2021/10/04 09:55:19;;;;;;;;;;;;;;;21.95;60.38;100101.19;4435834;32;20052;-87
2021/10/04 09:57:58;;;;;;;;;;;;;;;22.05;60.38;100096.97;4435680;32;19985;-87
2021/10/04 10:00:24;;;;;;;;;;;;;;;22.28;60.40;100092.59;4422641;32;20338;-87
2021/10/04 10:02:54;;;;;;;;;;;;;;;22.51;60.41;100088.22;4423007;32;20001;-87
2021/10/04 10:05:23;;;;;;;;;;;;;;;22.49;60.42;100095.44;4435652;32;20274;-87
2021/10/04 10:07:49;;;;;;;;;;;;;;;22.73;60.42;100088.25;4422680;32;19989;-87
2021/10/04 10:10:14;;;;;;;;;;;;;;;22.73;60.42;100087.41;4435297;32;20014;-87
2021/10/04 10:12:39;;;;;;;;;;;;;;;22.83;60.43;100097.22;4436649;32;21260;-87
2021/10/04 10:15:04;;;;;;;;;;;;;;;22.65;60.42;100085.31;4438660;32;20287;-87
2021/10/04 10:17:30;;;;;;;;;;;;;;;22.76;60.42;100084.50;4437640;32;19985;-87
2021/10/04 10:19:56;;;;;;;;;;;;;;;22.85;60.43;100079.34;4437952;32;20282;-88
2021/10/04 10:22:22;;;;;;;;;;;;;;;23.11;60.45;100076.47;4425320;32;20004;-86
2021/10/04 10:24:48;;;;;;;;;;;;;;;23.23;60.45;100071.06;4424885;32;20009;-87
2021/10/04 10:27:13;;;;;;;;;;;;;;;23.26;60.44;100075.28;4437481;32;20027;-88
2021/10/04 10:29:38;;;;;;;;;;;;;;;23.44;60.46;100068.50;4436581;32;33849;-87
2021/10/04 10:32:05;;;;;;;;;;;;;;;23.50;60.47;100062.69;4437753;32;20256;-88
2021/10/04 10:34:33;;;;;;;;;;;;;;;23.63;60.47;100059.88;4424942;32;19985;-87
2021/10/04 10:37:17;;;;;;;;;;;;;;;23.92;60.49;100062.00;4438955;32;20019;-88
2021/10/04 10:39:47;;;;;;;;;;;;;;;23.92;60.48;100054.88;4425161;32;20038;-88
2021/10/04 10:42:12;;;;;;;;;;;;;;;24.14;60.50;100057.44;4437915;32;20007;-88
2021/10/04 10:44:56;;;;;;;;;;;;;;;24.32;60.50;100049.75;4437786;32;19997;-88
2021/10/04 10:47:33;;;;;;;;;;;;;;;24.58;60.51;100039.53;4439120;32;19970;-88
2021/10/04 10:49:58;;;;;;;;;;;;;;;24.58;60.51;100036.87;4439130;32;19978;-88
2021/10/04 10:52:24;;;;;;;;;;;;;;;24.68;60.53;100040.44;4437667;32;20028;-87
2021/10/04 10:54:52;;;;;;;;;;;;;;;24.83;60.52;100029.44;4437967;32;19988;-87
2021/10/04 10:57:17;;;;;;;;;;;;;;;24.67;60.51;100027.28;4437489;32;20031;-87
2021/10/04 10:59:42;;;;;;;;;;;;;;;24.68;60.51;100015.66;4436903;32;24574;-87
2021/10/04 11:02:27;;;;;;;;;;;;;;;24.83;60.52;100024.09;4437538;32;20001;-87
2021/10/04 11:04:52;;;;;;;;;;;;;;;24.90;60.53;100014.63;4439089;32;19992;-87
2021/10/04 11:07:37;;;;;;;;;;;;;;;25.15;60.55;100016.00;4437295;32;19989;-87
2021/10/04 11:10:06;;;;;;;;;;;;;;;25.29;60.55;100007.63;4437373;32;20674;-87
2021/10/04 11:12:51;;;;;;;;;;;;;;;25.52;60.56;100010.88;4437575;32;20004;-88
2021/10/04 11:15:29;;;;;;;;;;;;;;;25.36;60.56;100003.44;4438961;32;19985;-88
2021/10/04 11:17:54;;;;;;;;;;;;;;;25.53;60.56;100005.41;4437498;32;20033;-87
2021/10/04 11:20:19;;;;;;;;;;;;;;;25.64;60.57;99997.31;4438200;32;20384;-88
2021/10/04 11:22:44;;;;;;;;;;;;;;;25.78;60.58;99989.88;4439853;32;21548;-87
2021/10/04 11:25:10;;;;;;;;;;;;;;;25.87;60.59;99989.06;4436831;32;28362;-88
2021/10/04 11:27:46;;;;;;;;;;;;;;;25.94;60.59;99990.19;4437437;32;20021;-88
2021/10/04 11:30:11;;;;;;;;;;;;;;;26.01;60.59;99989.47;4424843;32;20003;-88
2021/10/04 11:32:37;;;;;;;;;;;;;;;26.16;60.60;99992.53;4437568;32;20276;-87
2021/10/04 11:35:09;;;;;;;;;;;;;;;26.31;60.61;99991.13;4436942;32;24409;-87
2021/10/04 11:37:35;;;;;;;;;;;;;;;26.52;60.61;99980.28;4424575;32;19988;-88
2021/10/04 11:40:00;;;;;;;;;;;;;;;26.45;60.62;99989.00;4437219;32;20053;-87
2021/10/04 11:42:26;;;;;;;;;;;;;;;26.56;60.63;99984.34;4436319;32;27811;-87
2021/10/04 11:44:51;;;;;;;;;;;;;;;26.59;60.62;99984.03;4437378;32;19981;-88
2021/10/04 11:47:16;;;;;;;;;;;;;;;26.67;60.63;99969.09;4437234;32;20278;-88
2021/10/04 11:49:43;;;;;;;;;;;;;;;26.85;60.63;99970.03;4436917;32;20001;-87
2021/10/04 11:52:12;;;;;;;;;;;;;;;26.87;60.63;99965.38;4424453;32;20001;-87
2021/10/04 11:54:40;;;;;;;;;;;;;;;26.81;60.64;99958.78;4437365;32;19989;-88
2021/10/04 11:57:06;;;;;;;;;;;;;;;26.93;60.64;99952.25;4437202;32;20044;-87
2021/10/04 11:59:52;;;;;;;;;;;;;;;26.88;60.65;99946.53;4437434;32;19996;-88
2021/10/04 12:02:22;;;;;;;;;;;;;;;26.98;60.64;99943.81;4428730;32;20017;-87
2021/10/04 12:04:47;;;;;;;;;;;;;;;26.97;60.65;99942.09;4437026;32;19973;-87
2021/10/04 12:07:12;;;;;;;;;;;;;;;26.92;60.63;99936.38;4436706;32;27126;-87
2021/10/04 12:09:38;;;;;;;;;;;;;;;27.01;60.64;99938.19;4436204;32;30190;-87
2021/10/04 12:12:04;;;;;;;;;;;;;;;26.81;60.64;99934.75;4436525;32;20308;-88
2021/10/04 12:14:29;;;;;;;;;;;;;;;26.80;60.64;99921.56;4437245;32;20023;-88
2021/10/04 12:17:01;;;;;;;;;;;;;;;26.90;60.64;99916.97;4436505;32;24992;-88
2021/10/04 12:19:26;;;;;;;;;;;;;;;27.00;60.64;99916.97;4437175;32;20011;-88
2021/10/04 12:21:52;;;;;;;;;;;;;;;27.16;60.65;99922.47;4436782;32;20832;-88
2021/10/04 12:24:26;;;;;;;;;;;;;;;27.02;60.64;99920.34;4437267;32;20320;-88
2021/10/04 12:27:02;;;;;;;;;;;;;;;27.04;60.65;99913.84;4437091;32;20003;-87
2021/10/04 12:29:41;;;;;;;;;;;;;;;26.83;60.64;99927.44;4424303;32;20413;-88
2021/10/04 12:32:18;;;;;;;;;;;;;;;26.86;60.63;99923.63;4424599;32;19993;-88
2021/10/04 12:34:56;;;;;;;;;;;;;;;26.85;60.63;99919.28;4437135;32;19986;-88